Time;durP1;ratioP1;P1;durP2;ratioP2;P2;SDS_P1;SDS_P2;PMS_P1;PMS_P2;Temp;Humidity;BMP_temperature;BMP_pressure;BME280_temperature;BME280_humidity;BME280_pressure;Samples;Min_cycle;Max_cycle;Signal;HPM_P1;HPM_P2
2021/05/13 00:00:31;;;;;;;9.27;7.60;;;7.90;99.90;;;;;;5081027;28;20184;-80
2021/05/13 00:02:57;;;;;;;10.30;7.63;;;7.90;99.90;;;;;;5080608;28;20176;-80
2021/05/13 00:05:23;;;;;;;8.20;7.40;;;7.90;99.90;;;;;;5081055;28;20246;-80
2021/05/13 00:07:48;;;;;;;10.87;8.23;;;7.90;99.90;;;;;;5080602;28;20243;-80
2021/05/13 00:10:20;;;;;;;10.10;7.47;;;7.90;99.90;;;;;;5098996;28;20199;-80
2021/05/13 00:15:19;;;;;;;7.93;6.60;;;7.90;99.90;;;;;;5098754;28;20540;-79
2021/05/13 00:17:45;;;;;;;8.50;6.97;;;7.90;99.90;;;;;;5098720;28;20168;-80
2021/05/13 00:20:14;;;;;;;9.23;7.00;;;7.90;99.90;;;;;;5080954;28;20296;-80
2021/05/13 00:22:40;;;;;;;8.83;7.87;;;7.90;99.90;;;;;;5098649;28;20265;-80
2021/05/13 00:25:07;;;;;;;10.23;8.77;;;7.90;99.90;;;;;;5080628;28;20633;-80
2021/05/13 00:27:33;;;;;;;9.93;8.37;;;7.90;99.90;;;;;;5080589;28;20176;-80
2021/05/13 00:29:59;;;;;;;10.03;7.80;;;7.90;99.90;;;;;;5097270;28;20726;-80
2021/05/13 00:32:24;;;;;;;9.10;8.20;;;7.90;99.90;;;;;;5098807;28;20287;-80
2021/05/13 00:34:50;;;;;;;9.93;7.87;;;7.90;99.90;;;;;;5080180;28;20176;-80
2021/05/13 00:37:16;;;;;;;9.43;7.63;;;7.90;99.90;;;;;;5098652;28;20221;-79
2021/05/13 00:39:41;;;;;;;8.97;7.63;;;7.90;99.90;;;;;;5080235;28;20199;-80
2021/05/13 00:42:07;;;;;;;8.43;7.43;;;7.90;99.90;;;;;;5080495;28;20207;-79
2021/05/13 00:44:36;;;;;;;10.47;7.30;;;8.00;99.90;;;;;;5098386;28;20165;-80
2021/05/13 00:47:03;;;;;;;9.03;7.83;;;8.00;99.90;;;;;;5080192;28;20208;-80
2021/05/13 00:49:29;;;;;;;10.47;8.13;;;8.00;99.90;;;;;;5080329;28;20191;-80
2021/05/13 00:51:55;;;;;;;10.47;7.37;;;8.00;99.90;;;;;;5097406;28;20199;-80
2021/05/13 00:54:21;;;;;;;9.17;8.00;;;8.00;99.90;;;;;;5097992;28;20176;-80
2021/05/13 00:56:47;;;;;;;10.20;7.90;;;8.00;99.90;;;;;;5098259;28;20183;-80
2021/05/13 00:59:13;;;;;;;10.23;7.93;;;8.00;99.90;;;;;;5079932;28;20211;-80
2021/05/13 01:04:11;;;;;;;8.73;7.73;;;8.00;99.90;;;;;;5098189;28;20159;-80
2021/05/13 01:06:36;;;;;;;7.83;7.03;;;8.00;99.90;;;;;;5098304;28;20177;-80
2021/05/13 01:09:08;;;;;;;8.40;7.13;;;8.00;99.90;;;;;;5082017;28;20193;-79
2021/05/13 01:11:36;;;;;;;10.83;7.60;;;7.90;99.90;;;;;;5090421;28;20204;-80
2021/05/13 01:14:12;;;;;;;8.17;7.17;;;7.90;99.90;;;;;;5113190;28;20180;-80
2021/05/13 01:16:47;;;;;;;11.73;8.07;;;7.90;99.90;;;;;;5110769;28;20203;-79
2021/05/13 01:19:16;;;;;;;8.60;7.40;;;7.90;99.90;;;;;;5098152;28;20219;-80
2021/05/13 01:21:41;;;;;;;8.77;7.43;;;7.80;99.90;;;;;;5079075;28;20238;-80
2021/05/13 01:24:07;;;;;;;10.10;8.17;;;7.90;99.90;;;;;;5096963;28;20172;-80
2021/05/13 01:26:33;;;;;;;9.63;7.47;;;7.80;99.90;;;;;;5097500;28;20172;-80
2021/05/13 01:28:59;;;;;;;11.00;8.13;;;7.80;99.90;;;;;;5079237;28;20187;-80
2021/05/13 01:31:25;;;;;;;7.87;7.07;;;7.80;99.90;;;;;;5097076;28;20665;-80
2021/05/13 01:33:51;;;;;;;8.43;7.37;;;7.90;99.90;;;;;;5078975;28;20643;-80
2021/05/13 01:36:17;;;;;;;8.47;7.07;;;7.80;99.90;;;;;;5078761;28;20542;-80
2021/05/13 01:38:42;;;;;;;9.43;7.63;;;7.80;99.90;;;;;;5097511;28;20284;-80
2021/05/13 01:41:08;;;;;;;9.03;7.63;;;7.80;99.90;;;;;;5079081;28;20249;-80
2021/05/13 01:43:34;;;;;;;10.80;7.60;;;7.80;99.90;;;;;;5097250;28;20620;-80
2021/05/13 01:46:00;;;;;;;10.00;7.33;;;7.80;99.90;;;;;;5096542;28;20241;-80
2021/05/13 01:48:27;;;;;;;9.20;7.03;;;7.80;99.90;;;;;;5078805;28;20204;-80
2021/05/13 01:50:53;;;;;;;9.17;7.23;;;7.70;99.90;;;;;;5097042;28;20194;-80
2021/05/13 01:53:20;;;;;;;8.83;7.63;;;7.70;99.90;;;;;;5078698;28;20180;-79
2021/05/13 01:55:46;;;;;;;9.90;7.93;;;7.70;99.90;;;;;;5078560;28;20271;-80
2021/05/13 01:58:12;;;;;;;9.23;7.87;;;7.60;99.90;;;;;;5096698;28;20164;-80
2021/05/13 02:00:40;;;;;;;8.93;6.97;;;7.70;99.90;;;;;;5096630;28;20187;-80
2021/05/13 02:03:06;;;;;;;8.30;6.93;;;7.60;99.90;;;;;;5096786;28;20168;-80
2021/05/13 02:05:32;;;;;;;8.40;6.80;;;7.60;99.90;;;;;;5078488;28;20172;-80
2021/05/13 02:07:58;;;;;;;7.90;6.70;;;7.60;99.90;;;;;;5096714;28;20168;-80
2021/05/13 02:10:24;;;;;;;8.87;7.20;;;7.50;99.90;;;;;;5079009;28;20177;-80
2021/05/13 02:12:49;;;;;;;7.77;6.70;;;7.60;99.90;;;;;;5079207;28;20287;-80
2021/05/13 02:15:18;;;;;;;7.80;6.80;;;7.50;99.90;;;;;;5079489;28;20200;-80
2021/05/13 02:17:44;;;;;;;7.83;7.03;;;7.50;99.90;;;;;;5096609;28;20196;-80
2021/05/13 02:20:12;;;;;;;9.27;7.97;;;7.50;99.90;;;;;;5096464;28;20964;-79
2021/05/13 02:22:39;;;;;;;8.73;7.33;;;7.50;99.90;;;;;;5096121;28;20303;-80
2021/05/13 02:25:06;;;;;;;9.60;7.23;;;7.50;99.90;;;;;;5077543;28;20172;-80
2021/05/13 02:27:33;;;;;;;9.47;7.60;;;7.40;99.90;;;;;;5096356;28;20222;-79
2021/05/13 02:29:59;;;;;;;9.40;7.47;;;7.50;99.90;;;;;;5096095;28;20703;-79
2021/05/13 02:32:25;;;;;;;7.87;6.90;;;7.50;99.90;;;;;;5096199;28;20195;-79
2021/05/13 02:34:51;;;;;;;9.33;7.63;;;7.50;99.90;;;;;;5077682;28;20191;-80
2021/05/13 02:37:19;;;;;;;8.57;7.40;;;7.50;99.90;;;;;;5096261;28;20634;-79
2021/05/13 02:39:45;;;;;;;9.30;7.60;;;7.40;99.90;;;;;;5078368;28;20204;-80
2021/05/13 02:42:11;;;;;;;9.07;7.87;;;7.40;99.90;;;;;;5096059;28;20196;-79
2021/05/13 02:44:36;;;;;;;10.73;7.77;;;7.50;99.90;;;;;;5094717;28;20181;-79
2021/05/13 02:47:02;;;;;;;8.83;7.13;;;7.50;99.90;;;;;;5077445;28;20177;-80
2021/05/13 02:49:28;;;;;;;9.87;7.20;;;7.50;99.90;;;;;;5078084;28;20199;-79
2021/05/13 02:51:53;;;;;;;8.47;7.20;;;7.50;99.90;;;;;;5077527;28;20241;-80
2021/05/13 02:54:19;;;;;;;8.10;6.83;;;7.50;99.90;;;;;;5096005;28;20180;-80
2021/05/13 02:56:44;;;;;;;9.27;7.93;;;7.50;99.90;;;;;;5096209;28;20536;-80
2021/05/13 02:59:11;;;;;;;8.60;7.20;;;7.50;99.90;;;;;;5078269;28;20200;-80
2021/05/13 03:01:36;;;;;;;9.73;7.10;;;7.50;99.90;;;;;;5096635;28;20214;-79
2021/05/13 03:04:03;;;;;;;9.30;7.43;;;7.40;99.90;;;;;;5094447;28;20173;-80
2021/05/13 03:06:30;;;;;;;7.77;6.93;;;7.40;99.90;;;;;;5077549;28;20641;-79
2021/05/13 03:08:57;;;;;;;8.77;7.73;;;7.50;99.90;;;;;;5095862;28;20415;-80
2021/05/13 03:11:24;;;;;;;7.73;6.77;;;7.50;99.90;;;;;;5095691;28;20191;-80
2021/05/13 03:13:53;;;;;;;8.67;6.93;;;7.50;99.90;;;;;;5077652;28;20172;-80
2021/05/13 03:16:19;;;;;;;9.70;6.93;;;7.50;99.90;;;;;;5081193;28;20551;-79
2021/05/13 03:18:50;;;;;;;8.23;6.60;;;7.50;99.90;;;;;;5100289;28;20208;-80
2021/05/13 03:21:23;;;;;;;8.90;7.07;;;7.50;99.90;;;;;;5099811;28;20575;-80
2021/05/13 03:26:33;;;;;;;7.83;6.67;;;7.60;99.90;;;;;;5100013;28;20440;-80
2021/05/13 03:28:59;;;;;;;10.30;7.27;;;7.60;99.90;;;;;;5081669;28;20216;-80
2021/05/13 03:31:24;;;;;;;9.87;7.23;;;7.60;99.90;;;;;;5100008;28;20284;-80
2021/05/13 03:33:50;;;;;;;8.20;6.83;;;7.60;99.90;;;;;;5099803;28;20205;-79
2021/05/13 03:36:16;;;;;;;8.40;6.97;;;7.60;99.90;;;;;;5099689;28;20173;-80
2021/05/13 03:38:41;;;;;;;7.80;6.80;;;7.50;99.90;;;;;;5100981;28;20215;-80
2021/05/13 03:41:07;;;;;;;8.43;6.73;;;7.50;99.90;;;;;;5101305;28;20189;-80
2021/05/13 03:43:33;;;;;;;7.70;6.53;;;7.50;99.90;;;;;;5099685;28;20271;-80
2021/05/13 03:45:59;;;;;;;7.57;6.53;;;7.50;99.90;;;;;;5081394;28;20526;-80
2021/05/13 03:48:24;;;;;;;8.47;6.80;;;7.50;99.90;;;;;;5099748;28;20603;-80
2021/05/13 03:50:50;;;;;;;7.67;6.50;;;7.50;99.90;;;;;;5099218;28;20239;-80
2021/05/13 03:53:15;;;;;;;10.70;9.00;;;7.60;99.90;;;;;;5099510;28;20180;-80
2021/05/13 03:55:41;;;;;;;9.47;7.63;;;7.60;99.90;;;;;;5081116;28;20274;-80
2021/05/13 03:58:09;;;;;;;8.43;6.63;;;7.50;99.90;;;;;;5099394;28;20180;-80
2021/05/13 04:01:30;;;;;;;33.17;25.17;;;7.50;99.90;;;;;;5099520;28;20645;-79
2021/05/13 04:03:24;;;;;;;10.63;9.07;;;7.50;99.90;;;;;;5088250;28;20410;-80
2021/05/13 04:05:49;;;;;;;11.17;8.23;;;7.50;99.90;;;;;;5099305;28;20416;-80
2021/05/13 04:08:16;;;;;;;11.67;9.13;;;7.60;99.90;;;;;;5099798;28;20247;-79
2021/05/13 04:10:42;;;;;;;7.87;7.07;;;7.60;99.90;;;;;;5099461;28;20168;-79
2021/05/13 04:13:12;;;;;;;10.00;6.97;;;7.60;99.90;;;;;;5099105;28;20579;-80
2021/05/13 04:15:38;;;;;;;8.23;7.00;;;7.60;99.90;;;;;;5099617;28;20169;-80
2021/05/13 04:18:03;;;;;;;6.90;6.20;;;7.60;99.90;;;;;;5081026;28;20587;-80
2021/05/13 04:20:29;;;;;;;9.00;7.20;;;7.60;99.90;;;;;;5080382;28;20172;-80
2021/05/13 04:22:55;;;;;;;7.80;6.67;;;7.60;99.90;;;;;;5081316;28;20165;-80
2021/05/13 04:25:20;;;;;;;8.13;6.33;;;7.60;99.90;;;;;;5098923;28;20172;-79
2021/05/13 04:27:47;;;;;;;8.10;7.30;;;7.60;99.90;;;;;;5104807;28;20168;-80
2021/05/13 04:30:14;;;;;;;8.83;7.20;;;7.60;99.90;;;;;;5111897;28;20192;-80
2021/05/13 04:32:39;;;;;;;7.83;7.00;;;7.60;99.90;;;;;;5113472;28;20189;-80
2021/05/13 04:35:06;;;;;;;8.60;7.27;;;7.60;99.90;;;;;;5090247;28;20279;-80
2021/05/13 04:37:31;;;;;;;8.83;7.37;;;7.60;99.90;;;;;;5080884;28;20183;-80
2021/05/13 04:39:57;;;;;;;7.93;6.83;;;7.60;99.90;;;;;;5098533;28;20200;-80
2021/05/13 04:42:23;;;;;;;8.20;7.17;;;7.60;99.90;;;;;;5098658;28;20318;-80
2021/05/13 04:44:49;;;;;;;9.00;6.73;;;7.60;99.90;;;;;;5080153;28;20172;-80
2021/05/13 04:49:49;;;;;;;9.13;7.03;;;7.70;99.90;;;;;;5099260;28;20167;-80
2021/05/13 04:52:15;;;;;;;8.50;7.20;;;7.70;99.90;;;;;;5080400;28;20200;-80
2021/05/13 04:54:41;;;;;;;8.60;6.83;;;7.80;99.90;;;;;;5098477;28;20180;-80
2021/05/13 04:57:07;;;;;;;7.63;6.83;;;7.80;99.90;;;;;;5080602;28;20433;-80
2021/05/13 04:59:32;;;;;;;7.43;6.63;;;7.90;99.90;;;;;;5079975;28;20798;-80
2021/05/13 05:01:58;;;;;;;8.10;6.70;;;7.90;99.90;;;;;;5097647;28;20611;-80
2021/05/13 05:04:24;;;;;;;8.77;6.73;;;7.90;99.90;;;;;;5098395;28;20165;-80
2021/05/13 05:06:50;;;;;;;7.37;6.40;;;8.00;99.90;;;;;;5080210;28;20225;-80
2021/05/13 05:09:15;;;;;;;7.10;6.37;;;8.00;99.90;;;;;;5080143;28;20207;-80
2021/05/13 05:11:41;;;;;;;7.73;6.40;;;8.10;99.90;;;;;;5098159;28;20203;-80
2021/05/13 05:14:06;;;;;;;7.10;6.40;;;8.10;99.90;;;;;;5079725;28;20187;-80
2021/05/13 05:16:32;;;;;;;7.80;5.87;;;8.10;99.90;;;;;;5079965;28;20187;-80
2021/05/13 05:18:58;;;;;;;7.47;6.33;;;8.20;99.90;;;;;;5079687;28;20684;-80
2021/05/13 05:21:23;;;;;;;7.37;6.33;;;8.20;99.90;;;;;;5079948;28;20212;-80
2021/05/13 05:23:49;;;;;;;7.17;5.97;;;8.30;99.90;;;;;;5098214;28;20172;-79
2021/05/13 05:26:15;;;;;;;7.03;5.87;;;8.20;99.90;;;;;;5079238;28;20186;-80
2021/05/13 05:28:40;;;;;;;8.87;5.93;;;8.20;99.90;;;;;;5097786;28;20622;-80
2021/05/13 05:31:06;;;;;;;5.80;5.23;;;8.20;99.90;;;;;;5079403;28;20205;-80
2021/05/13 05:33:32;;;;;;;8.33;6.20;;;8.20;99.90;;;;;;5097525;28;20172;-80
2021/05/13 05:35:57;;;;;;;7.90;5.90;;;8.30;99.90;;;;;;5079400;28;20180;-79
2021/05/13 05:38:23;;;;;;;6.77;5.37;;;8.30;99.90;;;;;;5096291;28;20187;-79
2021/05/13 05:40:49;;;;;;;7.77;6.40;;;8.30;99.90;;;;;;5097106;28;20242;-80
2021/05/13 05:43:15;;;;;;;6.60;5.50;;;8.40;99.90;;;;;;5078768;28;20235;-80
2021/05/13 05:45:41;;;;;;;6.63;5.87;;;8.40;99.90;;;;;;5097191;28;20173;-80
2021/05/13 05:48:07;;;;;;;6.00;5.10;;;8.50;99.90;;;;;;5078611;28;20196;-80
2021/05/13 05:50:38;;;;;;;8.47;5.37;;;8.50;99.90;;;;;;5079064;28;20260;-80
2021/05/13 05:53:05;;;;;;;6.03;4.87;;;8.60;99.90;;;;;;5097478;28;20184;-80
2021/05/13 05:55:32;;;;;;;8.90;5.70;;;8.60;99.90;;;;;;5078799;28;20179;-80
2021/05/13 05:57:59;;;;;;;6.90;5.70;;;8.60;99.90;;;;;;5097300;28;20532;-81
2021/05/13 06:00:25;;;;;;;7.20;4.93;;;8.70;99.90;;;;;;5096508;28;20192;-80
2021/05/13 06:02:51;;;;;;;5.93;5.13;;;8.70;99.90;;;;;;5078981;28;20596;-80
2021/05/13 06:05:17;;;;;;;6.43;5.10;;;8.80;99.90;;;;;;5097293;28;20178;-79
2021/05/13 06:07:44;;;;;;;6.83;5.13;;;8.80;99.90;;;;;;5079127;28;20542;-80
2021/05/13 06:10:11;;;;;;;5.60;4.63;;;8.90;99.90;;;;;;5079037;28;20185;-80
2021/05/13 06:12:37;;;;;;;5.53;4.30;;;8.90;99.90;;;;;;5097526;28;20667;-80
2021/05/13 06:15:14;;;;;;;8.17;4.73;;;9.00;99.90;;;;;;5097022;28;20176;-80
2021/05/13 06:17:40;;;;;;;5.20;4.70;;;9.00;99.90;;;;;;5078587;28;20164;-80
2021/05/13 06:20:15;;;;;;;4.93;4.10;;;9.00;99.90;;;;;;5097047;28;20204;-81
2021/05/13 06:22:40;;;;;;;4.77;3.97;;;9.00;99.90;;;;;;5078459;28;20211;-80
2021/05/13 06:25:07;;;;;;;5.40;4.63;;;8.90;99.90;;;;;;5096530;28;20172;-80
2021/05/13 06:27:32;;;;;;;6.00;4.90;;;8.90;99.90;;;;;;5096808;28;20190;-80
2021/05/13 06:29:58;;;;;;;6.53;4.73;;;8.90;99.90;;;;;;5096813;28;20180;-81
2021/05/13 06:32:25;;;;;;;5.63;4.33;;;8.80;99.90;;;;;;5096631;28;20196;-80
2021/05/13 06:34:51;;;;;;;15.00;7.50;;;8.80;99.90;;;;;;5077802;28;20220;-80
2021/05/13 06:37:17;;;;;;;14.33;7.63;;;8.90;99.90;;;;;;5096740;28;20182;-80
2021/05/13 06:39:43;;;;;;;29.27;11.37;;;8.90;99.90;;;;;;5078468;28;20198;-80
2021/05/13 06:42:09;;;;;;;31.77;12.80;;;8.90;99.90;;;;;;5096431;28;20665;-80
2021/05/13 06:44:34;;;;;;;23.50;11.83;;;8.90;99.90;;;;;;5077621;28;20180;-80
2021/05/13 06:47:00;;;;;;;8.97;6.23;;;8.90;99.90;;;;;;5096406;28;20179;-79
2021/05/13 06:49:26;;;;;;;7.03;4.90;;;8.90;99.90;;;;;;5079477;28;20622;-80
2021/05/13 06:51:52;;;;;;;5.90;4.90;;;8.90;99.90;;;;;;5079078;28;20206;-80
2021/05/13 06:54:18;;;;;;;7.20;5.63;;;8.90;99.90;;;;;;5096843;28;20629;-80
2021/05/13 06:56:43;;;;;;;5.03;4.50;;;8.90;99.90;;;;;;5079282;28;20183;-80
2021/05/13 06:59:09;;;;;;;5.13;4.63;;;8.90;99.90;;;;;;5078818;28;20230;-80
2021/05/13 07:01:36;;;;;;;5.73;4.60;;;9.00;99.90;;;;;;5079078;28;20198;-80
2021/05/13 07:04:05;;;;;;;5.43;4.93;;;9.00;99.90;;;;;;5096965;28;20195;-80
2021/05/13 07:06:35;;;;;;;4.27;3.87;;;8.90;99.90;;;;;;5097342;28;20229;-80
2021/05/13 07:09:02;;;;;;;4.43;3.83;;;8.90;99.90;;;;;;5079188;28;20210;-80
2021/05/13 07:11:27;;;;;;;4.40;3.87;;;9.00;99.90;;;;;;5078670;28;20233;-80
2021/05/13 07:13:53;;;;;;;4.87;4.37;;;9.10;99.90;;;;;;5078833;28;20176;-80
2021/05/13 07:16:19;;;;;;;4.70;3.93;;;9.10;99.90;;;;;;5079021;28;20176;-80
2021/05/13 07:18:44;;;;;;;5.10;4.10;;;9.20;99.90;;;;;;5079121;28;20201;-80
2021/05/13 07:21:10;;;;;;;6.13;4.47;;;9.30;99.90;;;;;;5097861;28;20233;-80
2021/05/13 07:23:38;;;;;;;6.30;5.10;;;9.30;99.90;;;;;;5097805;28;20164;-80
2021/05/13 07:26:04;;;;;;;5.07;4.53;;;9.40;99.90;;;;;;5097556;28;20164;-80
2021/05/13 07:28:29;;;;;;;6.00;4.97;;;9.50;99.90;;;;;;5080021;28;20252;-80
2021/05/13 07:30:55;;;;;;;5.53;4.90;;;9.50;99.90;;;;;;5079785;28;20214;-80
2021/05/13 07:33:21;;;;;;;5.53;4.57;;;9.60;99.90;;;;;;5097466;28;20183;-80
2021/05/13 07:35:47;;;;;;;4.70;3.90;;;9.70;99.90;;;;;;5097148;28;20528;-80
2021/05/13 07:38:13;;;;;;;4.33;3.80;;;9.70;99.90;;;;;;5097073;28;20169;-80
2021/05/13 07:40:38;;;;;;;4.17;3.77;;;9.70;99.90;;;;;;5097443;28;20226;-80
2021/05/13 07:43:05;;;;;;;4.30;3.90;;;9.80;99.90;;;;;;5078744;28;20554;-80
2021/05/13 07:45:33;;;;;;;4.57;4.17;;;9.90;99.90;;;;;;5079422;28;20250;-80
2021/05/13 07:47:58;;;;;;;5.03;3.70;;;9.90;99.90;;;;;;5086994;28;20198;-80
2021/05/13 07:50:25;;;;;;;5.67;3.57;;;10.10;99.90;;;;;;5091667;28;20176;-81
2021/05/13 07:52:52;;;;;;;4.00;3.60;;;10.00;99.90;;;;;;5090798;28;20211;-80
2021/05/13 07:55:17;;;;;;;3.90;3.50;;;10.20;99.90;;;;;;5100964;28;20184;-80
2021/05/13 07:57:44;;;;;;;4.30;3.77;;;10.30;99.90;;;;;;5097008;28;20175;-80
2021/05/13 08:00:10;;;;;;;3.67;3.23;;;10.50;99.90;;;;;;5079124;28;20670;-80
2021/05/13 08:02:36;;;;;;;3.53;3.23;;;10.50;99.90;;;;;;5082956;28;20188;-81
2021/05/13 08:05:03;;;;;;;6.93;3.73;;;10.60;99.90;;;;;;5082691;28;20183;-80
2021/05/13 08:07:28;;;;;;;3.57;3.27;;;10.80;99.90;;;;;;5101255;28;20172;-78
2021/05/13 08:09:54;;;;;;;3.77;3.37;;;10.90;99.90;;;;;;5082236;28;20589;-78
2021/05/13 08:12:20;;;;;;;4.57;3.57;;;10.90;99.90;;;;;;5100060;28;20203;-79
2021/05/13 08:14:45;;;;;;;10.23;4.63;;;11.00;99.90;;;;;;5081937;28;20263;-79
2021/05/13 08:17:12;;;;;;;4.50;3.70;;;11.20;99.90;;;;;;5099677;28;20253;-78
2021/05/13 08:19:38;;;;;;;3.30;2.63;;;11.30;99.90;;;;;;5082779;28;20192;-79
2021/05/13 08:22:04;;;;;;;3.43;2.60;;;11.40;99.90;;;;;;5100107;28;20203;-79
2021/05/13 08:24:30;;;;;;;3.43;2.27;;;11.40;99.90;;;;;;5099189;28;20698;-79
2021/05/13 08:26:58;;;;;;;3.63;2.40;;;11.40;99.90;;;;;;5080648;28;20179;-79
2021/05/13 08:29:31;;;;;;;2.70;2.40;;;11.50;99.90;;;;;;5081165;28;20173;-79
2021/05/13 08:31:57;;;;;;;3.43;2.67;;;11.60;99.90;;;;;;5099775;28;20274;-79
2021/05/13 08:34:23;;;;;;;2.50;2.30;;;11.70;99.90;;;;;;5099178;28;20633;-78
2021/05/13 08:36:49;;;;;;;3.37;2.00;;;11.70;99.90;;;;;;5099399;28;20225;-78
2021/05/13 08:39:15;;;;;;;7.13;2.60;;;11.80;99.90;;;;;;5099787;28;20549;-79
2021/05/13 08:41:41;;;;;;;3.57;2.20;;;11.90;99.90;;;;;;5099684;28;20184;-79
2021/05/13 08:44:07;;;;;;;2.97;1.97;;;12.00;99.90;;;;;;5081417;28;20160;-79
2021/05/13 08:46:36;;;;;;;2.27;1.80;;;12.10;99.90;;;;;;5099106;28;20633;-79
2021/05/13 08:49:02;;;;;;;2.20;1.90;;;12.30;99.90;;;;;;5080996;28;20184;-79
2021/05/13 08:51:28;;;;;;;4.20;2.30;;;12.70;99.90;;;;;;5099433;28;20525;-79
2021/05/13 08:53:58;;;;;;;2.70;2.03;;;12.90;99.90;;;;;;5080774;28;20229;-79
2021/05/13 08:56:26;;;;;;;2.23;2.03;;;13.10;99.90;;;;;;5080729;28;20229;-79
2021/05/13 08:58:52;;;;;;;2.93;1.50;;;13.10;99.90;;;;;;5081045;28;20192;-79
2021/05/13 09:01:21;;;;;;;3.37;1.53;;;13.10;99.90;;;;;;5080458;28;20196;-79
2021/05/13 09:03:48;;;;;;;1.53;1.20;;;12.90;99.90;;;;;;5080409;28;20168;-79
2021/05/13 09:06:43;;;;;;;2.50;1.50;;;12.90;99.90;;;;;;5080107;28;20176;-79
2021/05/13 09:09:16;;;;;;;1.50;1.30;;;13.00;99.90;;;;;;5098610;28;20252;-79
2021/05/13 09:11:57;;;;;;;1.77;1.20;;;12.90;99.90;;;;;;5079432;28;20341;-79
2021/05/13 09:14:28;;;;;;;1.63;0.90;;;12.90;99.90;;;;;;5079924;28;20191;-79
2021/05/13 09:17:02;;;;;;;2.37;1.20;;;13.00;99.90;;;;;;5080212;28;20184;-79
2021/05/13 09:19:31;;;;;;;2.70;1.10;;;13.30;99.90;;;;;;5098135;28;20210;-79
2021/05/13 09:21:59;;;;;;;1.80;1.33;;;13.40;99.90;;;;;;5079663;28;20219;-79
2021/05/13 09:24:47;;;;;;;2.23;1.20;;;13.30;99.90;;;;;;5079565;28;20199;-79
2021/05/13 09:27:24;;;;;;;1.80;1.30;;;13.30;99.90;;;;;;5079944;28;20172;-79
2021/05/13 09:30:00;;;;;;;2.70;1.67;;;13.40;99.90;;;;;;5079928;28;20172;-79
2021/05/13 09:32:26;;;;;;;3.33;1.73;;;13.30;99.90;;;;;;5079528;28;20566;-79
2021/05/13 09:34:52;;;;;;;2.47;1.60;;;13.30;99.90;;;;;;5097995;28;20247;-79
2021/05/13 09:37:18;;;;;;;1.60;1.20;;;13.40;99.90;;;;;;5097699;28;20261;-79
2021/05/13 09:39:46;;;;;;;2.17;1.10;;;13.70;99.90;;;;;;5080071;28;20196;-79
2021/05/13 09:42:12;;;;;;;1.73;1.10;;;14.40;99.90;;;;;;5097752;28;20576;-79
2021/05/13 09:44:41;;;;;;;2.10;1.17;;;15.40;99.90;;;;;;5079700;28;20168;-78
2021/05/13 09:47:27;;;;;;;1.47;1.10;;;16.10;99.90;;;;;;5098108;28;20168;-79
2021/05/13 09:50:02;;;;;;;2.43;1.30;;;16.70;99.90;;;;;;5079476;28;20522;-79
2021/05/13 09:52:46;;;;;;;1.27;1.00;;;16.70;99.90;;;;;;5097433;28;20192;-79
2021/05/13 09:55:16;;;;;;;2.73;1.10;;;16.50;99.90;;;;;;5079244;28;20164;-79
2021/05/13 09:57:49;;;;;;;2.80;1.23;;;16.60;99.90;;;;;;5098188;28;20154;-79
2021/05/13 10:00:31;;;;;;;1.13;1.10;;;16.80;99.90;;;;;;5079321;28;20190;-79
2021/05/13 10:02:58;;;;;;;3.33;1.20;;;15.90;99.90;;;;;;5079240;28;20232;-79
2021/05/13 10:05:24;;;;;;;2.60;1.50;;;15.50;99.90;;;;;;5079227;28;20211;-79
2021/05/13 10:07:50;;;;;;;2.30;1.80;;;15.20;99.90;;;;;;5079297;28;20176;-79
2021/05/13 10:10:16;;;;;;;2.47;1.17;;;15.00;99.90;;;;;;5097897;28;20174;-79
2021/05/13 10:12:44;;;;;;;2.33;1.40;;;14.70;99.90;;;;;;5098067;28;20200;-79
2021/05/13 10:15:10;;;;;;;1.73;1.23;;;14.20;99.90;;;;;;5079491;28;20543;-79
2021/05/13 10:17:37;;;;;;;2.57;1.60;;;14.00;99.90;;;;;;5079166;28;20548;-79
2021/05/13 10:20:04;;;;;;;2.27;1.50;;;14.80;99.90;;;;;;5079414;28;20219;-79
2021/05/13 10:22:30;;;;;;;1.90;1.30;;;15.90;99.90;;;;;;5098125;28;20224;-79
2021/05/13 10:25:22;;;;;;;1.57;0.90;;;16.40;99.90;;;;;;5078884;28;20198;-79
2021/05/13 10:28:11;;;;;;;1.10;1.00;;;17.30;99.90;;;;;;5075311;28;20184;-79
2021/05/13 10:30:37;;;;;;;2.30;1.83;;;18.00;99.90;;;;;;5080161;28;20180;-79
2021/05/13 10:33:06;;;;;;;1.97;0.93;;;17.80;99.90;;;;;;5079709;28;20179;-79
2021/05/13 10:35:32;;;;;;;2.73;1.50;;;17.80;99.90;;;;;;5080208;28;20215;-79
2021/05/13 10:38:00;;;;;;;3.70;1.63;;;17.30;99.90;;;;;;5098509;28;20179;-79
2021/05/13 10:43:26;;;;;;;1.60;1.33;;;16.00;99.90;;;;;;5081684;28;20202;-79
2021/05/13 10:45:52;;;;;;;1.90;1.60;;;15.10;99.90;;;;;;5080547;28;20165;-79
2021/05/13 10:48:26;;;;;;;2.73;1.67;;;14.60;99.90;;;;;;5098587;28;20176;-79
2021/05/13 10:51:02;;;;;;;1.50;1.10;;;14.10;99.90;;;;;;5080419;28;20189;-78
2021/05/13 10:53:34;;;;;;;2.23;1.20;;;13.70;99.90;;;;;;5098156;28;20151;-78
2021/05/13 10:56:27;;;;;;;1.13;0.93;;;13.40;99.90;;;;;;5080023;28;20255;-79
2021/05/13 10:59:03;;;;;;;1.40;1.30;;;13.30;99.90;;;;;;5094162;28;20204;-78
2021/05/13 11:01:28;;;;;;;1.27;1.17;;;13.10;99.90;;;;;;5079102;28;20204;-78
2021/05/13 11:06:50;;;;;;;2.23;1.20;;;13.10;99.90;;;;;;5115511;28;20180;-79
2021/05/13 11:09:48;;;;;;;1.60;1.33;;;13.50;99.90;;;;;;5115152;28;20180;-79
2021/05/13 11:12:36;;;;;;;1.63;1.03;;;13.90;99.90;;;;;;5081272;28;20192;-79
2021/05/13 11:20:30;;;;;;;1.47;1.37;;;14.70;99.90;;;;;;5097306;28;20641;-79
2021/05/13 11:23:09;;;;;;;1.30;1.20;;;15.10;99.90;;;;;;5079299;28;20589;-79
2021/05/13 11:25:56;;;;;;;1.20;1.10;;;15.30;99.90;;;;;;5079325;28;20160;-79
2021/05/13 11:28:24;;;;;;;5.90;1.27;;;15.60;99.90;;;;;;5096747;28;20161;-79
2021/05/13 11:30:52;;;;;;;1.87;1.10;;;15.60;99.90;;;;;;5097904;28;20176;-79
2021/05/13 11:33:18;;;;;;;2.07;1.20;;;15.80;99.90;;;;;;5098088;28;20709;-79
2021/05/13 11:35:44;;;;;;;4.30;0.90;;;15.40;99.90;;;;;;5099084;28;20187;-79
2021/05/13 11:38:23;;;;;;;1.57;0.83;;;15.30;99.90;;;;;;5083514;28;20176;-79
2021/05/13 11:40:53;;;;;;;1.67;0.70;;;15.50;99.90;;;;;;5085034;28;20206;-79
2021/05/13 11:43:28;;;;;;;1.00;0.80;;;15.40;99.90;;;;;;5084378;28;20168;-79
2021/05/13 11:45:56;;;;;;;1.47;1.30;;;15.30;99.90;;;;;;5101816;28;20194;-81
2021/05/13 11:48:24;;;;;;;1.70;1.20;;;15.30;99.90;;;;;;5083812;28;20255;-79
2021/05/13 11:50:50;;;;;;;1.40;0.90;;;15.20;99.90;;;;;;5103026;28;20168;-79
2021/05/13 11:53:17;;;;;;;2.30;1.00;;;15.20;99.90;;;;;;5101899;28;20176;-79
2021/05/13 11:55:45;;;;;;;0.73;0.73;;;15.00;99.90;;;;;;5083850;28;20230;-79
2021/05/13 11:58:13;;;;;;;1.73;0.93;;;14.90;99.90;;;;;;5081858;28;20222;-79
2021/05/13 12:00:42;;;;;;;1.33;1.17;;;15.50;99.90;;;;;;5099904;28;20204;-79
2021/05/13 12:03:25;;;;;;;0.70;0.63;;;15.50;99.90;;;;;;5101814;28;20533;-79
2021/05/13 12:05:53;;;;;;;2.10;0.73;;;15.60;99.90;;;;;;5101682;28;20172;-79
2021/05/13 12:08:21;;;;;;;0.80;0.80;;;15.50;99.90;;;;;;5082992;28;20172;-80
2021/05/13 12:10:47;;;;;;;1.13;1.00;;;15.70;99.90;;;;;;5101130;28;20172;-78
2021/05/13 12:13:13;;;;;;;5.37;3.57;;;15.70;99.90;;;;;;5100199;28;20176;-79
2021/05/13 12:15:39;;;;;;;2.10;1.23;;;15.90;99.90;;;;;;5100496;28;20191;-79
2021/05/13 12:18:05;;;;;;;1.83;0.87;;;15.80;99.90;;;;;;5100612;28;20176;-79
2021/05/13 12:20:32;;;;;;;2.10;1.40;;;15.20;99.90;;;;;;5081768;28;20229;-79
2021/05/13 12:23:03;;;;;;;1.10;0.90;;;15.10;99.90;;;;;;5101459;28;20161;-79
2021/05/13 12:25:29;;;;;;;1.10;1.00;;;14.70;99.90;;;;;;5099685;28;20614;-79
2021/05/13 12:27:56;;;;;;;1.03;0.87;;;14.30;99.90;;;;;;5100209;28;20184;-79
2021/05/13 12:30:22;;;;;;;0.83;0.83;;;13.90;99.90;;;;;;5100625;28;20530;-79
2021/05/13 12:32:47;;;;;;;1.30;1.07;;;13.50;99.90;;;;;;5082403;28;20196;-79
2021/05/13 12:35:28;;;;;;;1.20;0.93;;;13.20;99.90;;;;;;5081778;28;20172;-79
2021/05/13 12:38:10;;;;;;;1.27;1.10;;;13.10;99.90;;;;;;5100212;28;20251;-79
2021/05/13 12:40:36;;;;;;;1.17;1.07;;;13.10;99.90;;;;;;5081913;28;20243;-79
2021/05/13 12:43:12;;;;;;;2.03;0.90;;;13.10;99.90;;;;;;5081730;28;20177;-79
2021/05/13 12:45:56;;;;;;;1.83;0.90;;;13.10;99.90;;;;;;5081561;28;20178;-79
2021/05/13 12:48:21;;;;;;;2.83;1.10;;;12.90;99.90;;;;;;5099604;28;20159;-79
2021/05/13 12:51:00;;;;;;;1.07;0.97;;;12.60;99.90;;;;;;5099261;28;20169;-79
2021/05/13 12:53:27;;;;;;;2.17;1.20;;;12.60;99.90;;;;;;5099863;28;20165;-79
2021/05/13 12:55:53;;;;;;;1.40;1.00;;;12.50;99.90;;;;;;5099480;28;20203;-79
2021/05/13 12:58:22;;;;;;;5.43;3.20;;;12.50;99.90;;;;;;5099298;28;20169;-79
2021/05/13 13:01:00;;;;;;;2.40;1.40;;;12.40;99.90;;;;;;5098955;28;20176;-79
2021/05/13 13:03:35;;;;;;;2.37;1.07;;;12.20;99.90;;;;;;5080545;28;20180;-79
2021/05/13 13:06:15;;;;;;;2.77;1.00;;;12.00;99.90;;;;;;5080582;28;20183;-79
2021/05/13 13:08:48;;;;;;;1.40;0.90;;;11.90;99.90;;;;;;5081055;28;20207;-79
2021/05/13 13:11:30;;;;;;;1.20;0.90;;;12.00;99.90;;;;;;5080899;28;20196;-79
2021/05/13 13:13:59;;;;;;;1.20;1.00;;;12.10;99.90;;;;;;5098971;28;20159;-79
2021/05/13 13:16:25;;;;;;;2.20;1.40;;;12.30;99.90;;;;;;5080709;28;20183;-78
2021/05/13 13:19:02;;;;;;;2.13;1.20;;;12.40;99.90;;;;;;5081019;28;20206;-79